LEWISTON (LEW)

Elevation: 1870' · TRINITY R basin · Operator: US Bureau of Reclamation

Provisional data, subject to change.
Query executed Wednesday at 23:06:07   clock

Select a sensor type for a plot of data.
Note: Reservoir Flows are daily averages.

Earlier

Date RES ELE    STORAGE    RES CHG    OUTFLOW    INFLOW    EVAP    RIV REL    SPILL    DIS PWR   
 FEET   AF   AF   CFS   CFS   CFS   CFS   CFS   CFS  
03/02/2015 1901.01 13918 73 376 415 2 310 155 0
03/03/2015 1901.22 14076 158 325 407 2 311 156 0
03/04/2015 1901.45 14248 172 326 414 1 312 157 0
03/05/2015 1901.46 14255 7 327 333 2 313 158 0
03/06/2015 1901.49 14278 23 327 341 2 313 158 0
03/07/2015 1901.55 14322 44 328 352 2 314 159 0
03/08/2015 1901.57 14337 15 329 337 0 315 160 0
03/09/2015 1901.29 14128 -209 325 225 5 311 158 0
03/10/2015 1901.31 14143 15 320 331 3 306 159 0
03/11/2015 1901.44 14240 97 311 360 0 297 158 0
03/12/2015 1901.49 14278 38 310 329 0 296 156 0
03/13/2015 1901.59 14352 74 311 350 2 297 157 0
03/14/2015 1901.13 14008 -344 311 140 2 297 157 0
03/15/2015 1901.28 14120 112 311 367 0 297 157 0
03/16/2015 1901.21 14068 -52 312 287 1 298 158 0
03/17/2015 1901.28 14120 52 309 336 1 295 155 0
03/18/2015 1901.34 14165 45 331 357 3 296 156 0
03/19/2015 1901.36 14180 15 309 318 1 295 155 0
03/20/2015 1901.38 14195 15 312 322 2 295 155 0
03/21/2015 1901.46 14255 60 308 340 2 294 154 0
03/22/2015 1901.53 14307 52 310 340 4 296 156 0
03/23/2015 1901.55 14322 15 321 331 2 307 172 0
03/24/2015 1901.58 14345 23 328 342 2 314 184 0
03/25/2015 1901.55 14322 -23 335 323 0 314 184 0
03/26/2015 1901.34 14165 -157 902 823 0 313 183 0
03/27/2015 1901.22 14076 -89 565 525 5 313 183 0
03/28/2015 1901.08 13971 -105 322 273 4 312 182 0
03/29/2015 1901.07 13963 -8 320 320 4 310 180 0
03/30/2015 1901.07 13963 0 321 325 4 311 181 0
03/31/2015 1901.07 13963 0 321 324 3 311 181 0
04/01/2015 -- -- -- -- -- -- -- -- --

Later | Latest

Warning! This data is preliminary and subject to revision.

Show LEW Map | Plot LEW Data | 1 Month LEW Data | Real-Time LEW Data | LEW Info